Tiempo atmosférico en la estación meteorológica de Agaete, Las Palmas (5 m.)



Fecha
DESCASC
Temp. máxima en grados centígrados (hora)
DESCASC
Temp. mínima en grados centígrados (hora)
DESCASC
Temp. media en grados centígrados
DESCASC
Racha de viento máxima en m/sg (hora)
DESCASC
Velocidad máxima media en intervalos de 10 minutos(hora)
DESCASC
Precipitaciones diarias en mm
DESCASC
Precipitaciones de 00:00 a 06:00 en mm
DESCASC
Precipitaciones de 06:00 a 12:00 en mm
DESCASC
Precipitaciones de 12:00 a 18:00 en mm
DESCASC
Precipitaciones de 18:00 a 24:00 en mm
DESCASC
29-03-2020 21.9 (18:20) 15.7 (04:30) 18.8 5.28 (03:20) 3.61 (12:20) 0 0 0 0 0
28-03-2020 21.3 (17:20) 15.7 (07:30) 18.5 9.72 (14:10) 7.22 (16:40) 0.4 0.4 0 0 0
27-03-2020 21.4 (17:00) 15.8 (04:50) 18.6 9.44 (21:20) 7.78 (21:20) 0 0 0 0 0
26-03-2020 20.9 (09:10) 16 (00:00) 18.4 7.22 (13:40) 5.83 (13:30) 0 0 0 0 0
25-03-2020 21.3 (17:10) 16.6 (00:00) 18.9 9.72 (15:10) 6.94 (13:00) 0 0 0 0 0
24-03-2020 20.1 (14:10) 15.9 (00:00) 18 9.72 (05:40) 7.5 (02:50) 0 0 0 0 0
23-03-2020 19.2 (17:00) 14.4 (00:00) 16.8 17.78 (08:00) 10.83 (06:30) 3.6 1 0.8 1.6 0.2
22-03-2020 21.3 (15:50) 15.4 (19:10) 18.3 12.5 (18:10) 10 (18:30) 0.2 0.2 0 0 0
21-03-2020 19.9 (16:50) 16.3 (00:00) 18.1 11.39 (13:00) 7.22 (13:00) 0.4 0.2 0 0 0.2
20-03-2020 20.7 (16:20) 17.3 (00:00) 19 11.39 (12:10) 8.06 (12:30) 0.4 0 0.2 0 0.2
19-03-2020 21.2 (13:10) 17.3 (00:00) 19.3 12.22 (01:10) 8.89 (02:50) 1.4 0.6 0.6 0 0.2
18-03-2020 19.6 (15:30) 14.8 (00:00) 17.2 10.83 (03:30) 8.89 (21:30) 0 0 0 0 0
17-03-2020 19.1 (16:50) 14.1 (00:00) 16.6 14.72 (02:10) 7.78 (04:40) 1.4 0 0.2 0 1.2
16-03-2020 20.5 (13:00) 16.6 (00:00) 18.6 14.72 (08:00) 8.06 (07:50) 0.6 0 0 0 0.6
15-03-2020 21.1 (14:00) 17 (00:00) 19.1 11.67 (15:40) 6.94 (16:40) 1.4 0 0 0.4 1
14-03-2020 20.9 (15:40) 17.5 (00:00) 19.2 14.17 (10:50) 8.61 (10:50) 0 0 0 0 0
13-03-2020 21.3 (13:40) 17.8 (05:20) 19.5 16.39 (11:10) 9.17 (10:10) 0 0 0 0 0
12-03-2020 24.7 (15:20) 17.5 (00:00) 21.1 10.28 (23:00) 5.83 (19:30) 0 0 0 0 0
11-03-2020 24.3 (17:10) 16.3 (00:00) 20.3 8.33 (02:20) 5.83 (04:30) 0 0 0 0 0
10-03-2020 24.5 (17:00) 18.1 (00:00) 21.3 10.83 (01:50) 6.11 (00:20) 0 0 0 0 0
09-03-2020 26.2 (17:10) 18.4 (00:00) 22.3 13.06 (07:30) 7.78 (09:10) 0 0 0 0 0
08-03-2020 24.7 (16:50) 17.7 (00:00) 21.2 19.44 (09:10) 10.28 (09:10) 0 0 0 0 0
07-03-2020 20.7 (15:10) 17.1 (00:00) 18.9 16.11 (13:10) 10 (12:10) 0 0 0 0 0
06-03-2020 19.9 (16:30) 16.3 (00:00) 18.1 16.67 (14:20) 10.28 (14:20) 1.2 0.4 0.8 0 0
05-03-2020 21.1 (15:10) 17.8 (00:00) 19.4 19.72 (14:10) 10.28 (14:40) 0 0 0 0 0
04-03-2020 25.9 (15:40) 17.8 (00:00) 21.8 12.22 (22:10) 6.39 (13:20) 0 0 0 0 0
03-03-2020 22 (14:20) 18 (00:00) 20 15.56 (15:10) 9.17 (14:00) 0 0 0 0 0
02-03-2020 22.4 (12:50) 18.1 (00:00) 20.3 15 (23:40) 9.44 (23:50) 0 0 0 0 0
01-03-2020 24 (14:20) 17 (00:00) 20.5 12.5 (18:10) 7.78 (17:50) 0 0 0 0 0
29-02-2020 23 (14:10) 17.3 (00:00) 20.1 14.72 (13:00) 9.17 (13:00) 0 0 0 0 0

Gráficas

Temp. máximas Temp. mínimas Temp. medias Precipitaciones Rachas de viento máximas Velocidades máximas media en intervalos de 10 minutos

Datos horarios

Fecha y hora oficial Temperatura (ºC) Velocidad del viento (km/h) Dirección del viento Racha (km/h) Dirección de racha Precipitación (mm) Presión (hPa) Tendencia (hPa) Humedad (%)
2020-03-29 23:00:00 18.2 4 Este 5 Este 0 -- -- 70
2020-03-29 22:00:00 18.5 3 Sur 5 Sur 0 -- -- 69
2020-03-29 21:00:00 18.8 4 Sur 9 Sur 0 -- -- 68
2020-03-29 20:00:00 19.8 4 Sudoeste 8 Sudoeste 0 -- -- 63
2020-03-29 19:00:00 21.2 6 Oeste 10 Sudoeste 0 -- -- 57
2020-03-29 18:00:00 21.5 6 Sudoeste 12 Oeste 0 -- -- 52
2020-03-29 17:00:00 20.7 9 Oeste 12 Sudoeste 0 -- -- 57
2020-03-29 16:00:00 20.8 7 Oeste 11 Oeste 0 -- -- 57
2020-03-29 15:00:00 20.4 6 Noroeste 18 Noroeste 0 -- -- 59
2020-03-29 14:00:00 20.2 12 Noroeste 14 Noroeste 0 -- -- 61
2020-03-29 13:00:00 20 11 Norte 16 Norte 0 -- -- 63
2020-03-29 12:00:00 20.3 10 Norte 15 Sudeste 0 -- -- 63
2020-03-29 11:00:00 21.4 5 Sudoeste 8 Oeste 0 -- -- 54
2020-03-29 10:00:00 20.9 4 Sur 10 Este 0 -- -- 51
2020-03-29 09:00:00 17.3 9 Este 16 Este 0 -- -- 56
2020-03-29 08:00:00 15.9 11 Este 15 Este 0 -- -- 59
2020-03-29 07:00:00 16.2 6 Este 13 Este 0 -- -- 59
2020-03-29 06:00:00 16.6 8 Este 13 Este 0 -- -- 57
2020-03-29 05:00:00 16.3 6 Este 11 Nordeste 0 -- -- 59
2020-03-29 04:00:00 16.3 7 Nordeste 12 Norte 0 -- -- 57
2020-03-29 00:00:00 17.8 9 Nordeste 26 Norte 0 -- -- 57
2020-03-28 23:00:00 18.3 11 Norte 17 Norte 0 -- -- 52
2020-03-28 22:00:00 18.1 9 Nordeste 22 Nordeste 0 -- -- 54
2020-03-28 21:00:00 17.9 12 Nordeste 23 Nordeste 0 -- -- 67
2020-03-28 20:00:00 18.4 12 Norte 26 Norte 0 -- -- 68
2020-03-28 19:00:00 19.4 18 Norte 27 Nordeste 0 -- -- 60
2020-03-28 18:00:00 20.3 17 Nordeste 32 Norte 0 -- -- 56
2020-03-28 17:00:00 19.8 22 Norte 35 Norte 0 -- -- 60
2020-03-28 16:00:00 19.9 24 Norte 33 Norte 0 -- -- 61
2020-03-28 15:00:00 19.8 25 Norte 35 Norte 0 -- -- 62
2020-03-28 14:00:00 19.6 23 Norte 32 Norte 0 -- -- 61
2020-03-28 13:00:00 20 22 Norte 31 Norte 0 -- -- 57
2020-03-28 12:00:00 19.9 18 Norte 28 Norte 0 -- -- 59
2020-03-28 11:00:00 19.7 15 Norte 23 Norte 0 -- -- 61
2020-03-28 10:00:00 19.4 11 Norte 21 Norte 0 -- -- 57
2020-03-28 09:00:00 18.3 10 Nordeste 15 Nordeste 0 -- -- 63
2020-03-28 08:00:00 16.8 6 Este 17 Este 0 -- -- 72
2020-03-28 07:00:00 15.9 9 Este 17 Este 0 -- -- 71
2020-03-28 06:00:00 15.8 10 Este 17 Este 0 -- -- 73
2020-03-28 05:00:00 16.1 10 Este 17 Este 0 -- -- 72
2020-03-28 04:00:00 16 11 Este 17 Este 0 -- -- 78
2020-03-28 03:00:00 16.6 6 Este 15 Norte 0.4 -- -- 76
2020-03-28 02:00:00 17.2 14 Norte 19 Norte 0 -- -- 74
2020-03-28 01:00:00 17.6 3 Norte 27 Norte 0 -- -- 74
2020-03-28 00:00:00 18.1 19 Norte 30 Norte 0 -- -- 76
2020-03-27 23:00:00 17.3 6 Este 19 Sudeste 0 -- -- 77
2020-03-27 22:00:00 16.8 11 Nordeste 34 Noroeste 0 -- -- 79
2020-03-27 21:00:00 18.5 10 Norte 25 Norte 0 -- -- 72
2020-03-27 20:00:00 19 6 Oeste 8 Oeste 0 -- -- 72
2020-03-27 19:00:00 19.4 2 Oeste 8 Sur 0 -- -- 67
2020-03-27 18:00:00 19.8 3 Sudoeste 10 Sudoeste 0 -- -- 63
2020-03-27 17:00:00 21.4 5 Oeste 13 Noroeste 0 -- -- 60
2020-03-27 16:00:00 20 10 Noroeste 21 Norte 0 -- -- 62
2020-03-27 15:00:00 20.1 16 Norte 22 Norte 0 -- -- 66
2020-03-27 14:00:00 19.4 18 Norte 23 Norte 0 -- -- 70
2020-03-27 13:00:00 19.2 16 Norte 21 Norte 0 -- -- 69
2020-03-27 12:00:00 19.3 13 Norte 16 Norte 0 -- -- 67
2020-03-27 11:00:00 19.5 6 Sudeste 15 Sudeste 0 -- -- 60
2020-03-27 10:00:00 18 6 Nordeste 26 Norte 0 -- -- 69
2020-03-27 09:00:00 17.7 8 Norte 18 Sudeste 0 -- -- 70
2020-03-27 08:00:00 16.5 12 Este 16 Este 0 -- -- 73
2020-03-27 07:00:00 17 4 Nordeste 14 Este 0 -- -- 67
2020-03-27 06:00:00 16.9 8 Este 17 Este 0 -- -- 67
2020-03-27 05:00:00 16 11 Este 21 Nordeste 0 -- -- 70
2020-03-27 04:00:00 16.1 10 Este 17 Este 0 -- -- 68
2020-03-27 03:00:00 16.8 5 Nordeste 12 Este 0 -- -- 64
2020-03-27 02:00:00 16.7 6 Este 9 Este 0 -- -- 65
2020-03-27 01:00:00 16.9 5 Este 13 Este 0 -- -- 61
2020-03-27 00:00:00 16.8 6 Este 11 Nordeste 0 -- -- 66
2020-03-26 23:00:00 17.1 7 Nordeste 12 Norte 0 -- -- 66
2020-03-26 22:00:00 17.7 6 Nordeste 13 Nordeste 0 -- -- 64
2020-03-26 21:00:00 17.9 6 Nordeste 13 Nordeste 0 -- -- 63
2020-03-26 20:00:00 18.2 8 Nordeste 21 Norte 0 -- -- 63
2020-03-26 19:00:00 18.7 14 Norte 24 Norte 0 -- -- 61
2020-03-26 18:00:00 19.1 15 Norte 19 Norte 0 -- -- 64
2020-03-26 17:00:00 20 14 Norte 23 Norte 0 -- -- 58
2020-03-26 16:00:00 19.7 17 Norte 26 Norte 0 -- -- 63
2020-03-26 15:00:00 19.3 19 Noroeste 24 Noroeste 0 -- -- 65
2020-03-26 14:00:00 19.2 20 Norte 26 Norte 0 -- -- 63
2020-03-26 13:00:00 19.7 18 Norte 22 Noroeste 0 -- -- 65
2020-03-26 12:00:00 19.1 13 Noroeste 17 Noroeste 0 -- -- 67
2020-03-26 11:00:00 19.1 6 Sudoeste 9 Sur 0 -- -- 61
2020-03-26 10:00:00 20.3 4 Oeste 6 Oeste 0 -- -- 57
2020-03-26 09:00:00 20.7 2 Este 17 Este 0 -- -- 51
2020-03-26 08:00:00 16.8 10 Este 15 Este 0 -- -- 55
2020-03-26 07:00:00 16.3 7 Este 9 Este 0 -- -- 59
2020-03-26 06:00:00 16.5 3 Nordeste 9 Este 0 -- -- 58
2020-03-26 05:00:00 16.9 3 Nordeste 9 Norte 0 -- -- 55
2020-03-26 04:00:00 17 0 Calma 13 Nordeste 0 -- -- 57
2020-03-26 03:00:00 17.1 7 Nordeste 20 Nordeste 0 -- -- 61
2020-03-26 02:00:00 17.2 9 Nordeste 19 Nordeste 0 -- -- 63
2020-03-26 01:00:00 17.5 6 Norte 16 Norte 0 -- -- 63
2020-03-26 00:00:00 17 7 Nordeste 16 Norte 0 -- -- 60
2020-03-25 23:00:00 16.7 8 Norte 16 Nordeste 0 -- -- 64
2020-03-25 22:00:00 17.2 8 Nordeste 21 Nordeste 0 -- -- 65
2020-03-25 21:00:00 17.6 12 Nordeste 21 Nordeste 0 -- -- 65
2020-03-25 20:00:00 17.9 9 Nordeste 23 Nordeste 0 -- -- 64
2020-03-25 19:00:00 18.6 12 Nordeste 29 Norte 0 -- -- 59
2020-03-25 18:00:00 19.7 19 Norte 24 Norte 0 -- -- 57
2020-03-25 17:00:00 21.1 10 Nordeste 26 Norte 0 -- -- 44
2020-03-25 16:00:00 20.6 13 Norte 35 Norte 0 -- -- 55
2020-03-25 15:00:00 19.6 16 Norte 29 Norte 0 -- -- 57
2020-03-25 14:00:00 19.3 18 Norte 33 Norte 0 -- -- 61
2020-03-25 13:00:00 19 25 Norte 30 Norte 0 -- -- 64
2020-03-25 12:00:00 19.3 21 Norte 27 Norte 0 -- -- 61
2020-03-25 11:00:00 18.9 18 Norte 21 Norte 0 -- -- 66
2020-03-25 10:00:00 19 10 Norte 16 Norte 0 -- -- 63
2020-03-25 09:00:00 18.1 9 Norte 12 Norte 0 -- -- 61
2020-03-25 08:00:00 17.6 5 Nordeste 11 Nordeste 0 -- -- 65
2020-03-25 07:00:00 16.8 5 Este 10 Este 0 -- -- 69
2020-03-25 06:00:00 16.9 5 Nordeste 13 Nordeste 0 -- -- 69
2020-03-25 05:00:00 17.2 5 Nordeste 10 Nordeste 0 -- -- 67
2020-03-25 04:00:00 17.4 6 Nordeste 12 Nordeste 0 -- -- 67
2020-03-25 03:00:00 17.6 6 Este 13 Nordeste 0 -- -- 67
2020-03-25 02:00:00 17.6 6 Nordeste 14 Nordeste 0 -- -- 68
2020-03-25 01:00:00 17.5 8 Nordeste 16 Este 0 -- -- 70
2020-03-25 00:00:00 17.5 5 Este 18 Este 0 -- -- 69
2020-03-24 23:00:00 17.5 6 Nordeste 13 Este 0 -- -- 69
2020-03-24 22:00:00 17.7 6 Este 19 Norte 0 -- -- 68
2020-03-24 21:00:00 17.9 13 Norte 24 Norte 0 -- -- 69
2020-03-24 20:00:00 18.4 13 Norte 24 Norte 0 -- -- 68
2020-03-24 19:00:00 18.7 15 Norte 21 Norte 0 -- -- 67
2020-03-24 18:00:00 18.9 13 Norte 22 Norte 0 -- -- 65
2020-03-24 17:00:00 19.1 15 Norte 33 Norte 0 -- -- 64
2020-03-24 16:00:00 19.3 22 Norte 28 Norte 0 -- -- 67
2020-03-24 15:00:00 20 19 Norte 23 Noroeste 0 -- -- 63
2020-03-24 14:00:00 20 18 Norte 28 Norte 0 -- -- 62
2020-03-24 13:00:00 19.7 17 Norte 21 Norte 0 -- -- 64
2020-03-24 12:00:00 19.9 10 Norte 22 Norte 0 -- -- 61
2020-03-24 11:00:00 19.2 13 Norte 27 Norte 0 -- -- 68
2020-03-24 10:00:00 18.4 21 Norte 27 Norte 0 -- -- 73
2020-03-24 09:00:00 18 8 Este 19 Este 0 -- -- 73
2020-03-24 08:00:00 16.6 13 Nordeste 23 Nordeste 0 -- -- 76
2020-03-24 07:00:00 16.6 10 Este 19 Este 0 -- -- 72
2020-03-24 06:00:00 16 9 Este 35 Norte 0 -- -- 75
2020-03-24 05:00:00 17 16 Norte 33 Norte 0 -- -- 78
2020-03-24 04:00:00 17.3 10 Nordeste 25 Norte 0 -- -- 74
2020-03-24 03:00:00 17.4 23 Norte 34 Norte 0 -- -- 76
2020-03-24 02:00:00 17.9 21 Norte 28 Norte 0 -- -- 76
2020-03-24 01:00:00 17.4 11 Nordeste 31 Norte 0 -- -- 72
2020-03-24 00:00:00 17.7 21 Norte 38 Norte 0 -- -- 72
2020-03-23 23:00:00 17.9 22 Norte 29 Norte 0 -- -- 73
2020-03-23 22:00:00 16.9 12 Nordeste 30 Nordeste 0 -- -- 74
2020-03-23 21:00:00 17 30 Norte 51 Norte 0 -- -- 73
2020-03-23 20:00:00 17.7 19 Norte 36 Norte 0 -- -- 70
2020-03-23 19:00:00 18.1 14 Norte 35 Norte 0.2 -- -- 64
2020-03-23 18:00:00 18.4 17 Norte 30 Nordeste 0 -- -- 62
2020-03-23 17:00:00 19.2 16 Norte 39 Norte 0 -- -- 60
2020-03-23 16:00:00 18.5 23 Nordeste 37 Nordeste 0 -- -- 61
2020-03-23 15:00:00 16.8 27 Norte 63 Norte 0.8 -- -- 75
2020-03-23 14:00:00 18.2 19 Norte 42 Norte 0.2 -- -- 68
2020-03-23 13:00:00 17.7 31 Norte 41 Norte 0.6 -- -- 74
2020-03-23 12:00:00 15.8 24 Norte 57 Norte 0.4 -- -- 76
2020-03-23 11:00:00 17.4 27 Norte 46 Norte 0 -- -- 67
2020-03-23 10:00:00 16.7 28 Norte 41 Norte 0.2 -- -- 71
2020-03-23 09:00:00 15.9 10 Nordeste 54 Norte 0 -- -- 71
2020-03-23 08:00:00 14.4 32 Norte 64 Norte 0.2 -- -- 73
2020-03-23 07:00:00 16.2 35 Noroeste 55 Norte 0 -- -- 68
2020-03-23 06:00:00 16.1 29 Noroeste 44 Noroeste 0.4 -- -- 73
2020-03-23 05:00:00 16.1 27 Oeste 34 Oeste 0 -- -- 70
2020-03-23 04:00:00 15.6 21 Noroeste 46 Oeste 0.6 -- -- 75
2020-03-23 03:00:00 17.4 23 Oeste 29 Oeste 0 -- -- 66
2020-03-23 02:00:00 17.4 18 Noroeste 27 Noroeste 0 -- -- 61
2020-03-23 01:00:00 16.6 8 Noroeste 26 Noroeste 0 -- -- 70
2020-03-23 00:00:00 17.5 8 Sudoeste 35 Noroeste 0 -- -- 64
2020-03-22 23:00:00 17.8 26 Noroeste 41 Noroeste 0 -- -- 67
2020-03-22 22:00:00 17.8 13 Noroeste 30 Noroeste 0 -- -- 67
2020-03-22 21:00:00 17.5 4 Nordeste 18 Sudeste 0 -- -- 59
2020-03-22 20:00:00 16.9 9 Sudeste 23 Sudeste 0 -- -- 66
2020-03-22 19:00:00 15.6 29 Noroeste 45 Noroeste 0 -- -- 83
2020-03-22 18:00:00 17.7 22 Noroeste 35 Noroeste 0 -- -- 75
2020-03-22 17:00:00 19.5 20 Sudoeste 25 Sudoeste 0 -- -- 64
2020-03-22 16:00:00 21.1 9 Sudoeste 14 Sudoeste 0 -- -- 51
2020-03-22 15:00:00 20.4 6 Sudoeste 11 Oeste 0 -- -- 52
2020-03-22 14:00:00 19.8 6 Noroeste 12 Noroeste 0 -- -- 54
2020-03-22 13:00:00 20 5 Oeste 11 Noroeste 0 -- -- 52
2020-03-22 12:00:00 19.2 6 Noroeste 18 Este 0 -- -- 53
2020-03-22 11:00:00 18.4 6 Sudeste 13 Norte 0 -- -- 59
2020-03-22 10:00:00 17.1 5 Sudeste 15 Sudeste 0 -- -- 68
2020-03-22 09:00:00 16.3 8 Nordeste 30 Norte 0 -- -- 74
2020-03-22 08:00:00 16.9 5 Este 17 Noroeste 0 -- -- 61
2020-03-22 07:00:00 16.9 12 Norte 31 Norte 0 -- -- 64
2020-03-22 06:00:00 17.1 23 Norte 30 Norte 0 -- -- 68
2020-03-22 05:00:00 16.6 6 Nordeste 16 Nordeste 0 -- -- 64
2020-03-22 04:00:00 16.6 8 Nordeste 26 Norte 0 -- -- 63
2020-03-22 03:00:00 17 6 Nordeste 23 Norte 0.2 -- -- 60
2020-03-22 02:00:00 17.4 10 Norte 21 Norte 0 -- -- 64
2020-03-22 01:00:00 16.6 7 Este 22 Norte 0 -- -- 58
2020-03-22 00:00:00 17.3 13 Norte 23 Norte 0 -- -- 57
2020-03-21 23:00:00 16.5 8 Este 25 Nordeste 0 -- -- 71
2020-03-21 22:00:00 16.6 14 Nordeste 35 Norte 0.2 -- -- 71
2020-03-21 21:00:00 17.3 8 Este 15 Este 0 -- -- 62
2020-03-21 20:00:00 17 9 Este 28 Norte 0 -- -- 62
2020-03-21 19:00:00 17.3 18 Norte 28 Norte 0 -- -- 62
2020-03-21 18:00:00 18.9 12 Nordeste 30 Norte 0 -- -- 47
2020-03-21 17:00:00 19.6 12 Norte 29 Este 0 -- -- 44
2020-03-21 16:00:00 19.2 15 Nordeste 37 Norte 0 -- -- 50
2020-03-21 15:00:00 19.2 24 Norte 34 Norte 0 -- -- 48
2020-03-21 14:00:00 19 19 Norte 39 Norte 0 -- -- 47
2020-03-21 13:00:00 18.6 26 Norte 41 Norte 0 -- -- 54
2020-03-21 12:00:00 18.6 16 Nordeste 31 Nordeste 0 -- -- 52
2020-03-21 11:00:00 18 13 Nordeste 31 Nordeste 0 -- -- 55
2020-03-21 10:00:00 17.3 10 Nordeste 30 Nordeste 0 -- -- 56
2020-03-21 09:00:00 17.2 13 Nordeste 24 Nordeste 0 -- -- 51
2020-03-21 08:00:00 16.9 13 Norte 23 Norte 0 -- -- 58
2020-03-21 07:00:00 16.8 13 Nordeste 24 Nordeste 0 -- -- 56
2020-03-21 06:00:00 16.9 14 Nordeste 27 Nordeste 0.2 -- -- 54
2020-03-21 05:00:00 16.6 11 Este 25 Nordeste 0 -- -- 56
2020-03-21 04:00:00 17 17 Nordeste 35 Nordeste 0 -- -- 56
2020-03-21 03:00:00 17.2 14 Nordeste 31 Nordeste 0 -- -- 59
2020-03-21 02:00:00 17.1 16 Nordeste 30 Nordeste 0 -- -- 62
2020-03-21 01:00:00 17.3 17 Nordeste 30 Nordeste 0 -- -- 67
2020-03-21 00:00:00 17.5 19 Nordeste 30 Nordeste 0 -- -- 70
2020-03-20 23:00:00 17.7 16 Nordeste 33 Nordeste 0 -- -- 72
2020-03-20 22:00:00 17.6 20 Nordeste 33 Nordeste 0.2 -- -- 74
2020-03-20 21:00:00 17.7 13 Nordeste 31 Nordeste 0 -- -- 74
2020-03-20 20:00:00 17.6 14 Nordeste 28 Nordeste 0 -- -- 73
2020-03-20 19:00:00 18.3 18 Nordeste 32 Nordeste 0 -- -- 70
2020-03-20 18:00:00 18.5 15 Norte 32 Norte 0 -- -- 72
2020-03-20 17:00:00 20 14 Norte 26 Norte 0 -- -- 61
2020-03-20 16:00:00 20.3 17 Norte 35 Norte 0 -- -- 54
2020-03-20 15:00:00 20.2 18 Norte 40 Norte 0 -- -- 55
2020-03-20 14:00:00 20.3 20 Norte 33 Norte 0 -- -- 60
2020-03-20 13:00:00 19.7 18 Norte 41 Norte 0 -- -- 58
2020-03-20 12:00:00 19.2 28 Norte 35 Norte 0 -- -- 64
2020-03-20 11:00:00 19 22 Norte 35 Norte 0.2 -- -- 65
2020-03-20 10:00:00 19.9 14 Nordeste 26 Nordeste 0 -- -- 60
2020-03-20 09:00:00 18.3 16 Norte 33 Norte 0 -- -- 67
2020-03-20 08:00:00 17.5 12 Nordeste 28 Norte 0 -- -- 71
2020-03-20 07:00:00 18.1 9 Nordeste 26 Norte 0 -- -- 70
2020-03-20 06:00:00 18 12 Nordeste 24 Norte 0 -- -- 69
2020-03-20 05:00:00 17.9 12 Nordeste 23 Nordeste 0 -- -- 75
2020-03-20 04:00:00 17.8 12 Nordeste 21 Norte 0 -- -- 77
2020-03-20 03:00:00 18.1 12 Nordeste 21 Nordeste 0 -- -- 75
2020-03-20 02:00:00 18 10 Nordeste 19 Nordeste 0 -- -- 75
2020-03-20 01:00:00 18.1 10 Nordeste 22 Nordeste 0 -- -- 74
2020-03-20 00:00:00 18.1 12 Norte 26 Nordeste 0 -- -- 75
2020-03-19 23:00:00 18 18 Nordeste 34 Norte 0.2 -- -- 74
2020-03-19 22:00:00 18.6 13 Norte 28 Norte 0 -- -- 72
2020-03-19 21:00:00 18.7 16 Nordeste 35 Norte 0 -- -- 72
2020-03-19 20:00:00 18.9 13 Norte 29 Nordeste 0 -- -- 73
2020-03-19 19:00:00 19.1 13 Nordeste 31 Norte 0 -- -- 70
2020-03-19 18:00:00 19.8 18 Nordeste 35 Norte 0 -- -- 68
2020-03-19 17:00:00 19.8 13 Nordeste 32 Norte 0 -- -- 67
2020-03-19 16:00:00 20.1 15 Norte 30 Norte 0 -- -- 60
2020-03-19 15:00:00 20.4 18 Nordeste 41 Nordeste 0 -- -- 56
2020-03-19 14:00:00 20.9 17 Norte 31 Nordeste 0 -- -- 49
2020-03-19 13:00:00 20.9 14 Nordeste 33 Norte 0 -- -- 49
2020-03-19 12:00:00 19.9 17 Nordeste 32 Nordeste 0 -- -- 58
2020-03-19 11:00:00 18.5 14 Nordeste 40 Norte 0.2 -- -- 75
2020-03-19 10:00:00 18.8 24 Norte 37 Norte 0.2 -- -- 78
2020-03-19 09:00:00 18.5 21 Norte 39 Norte 0 -- -- 75
2020-03-19 08:00:00 18.3 21 Norte 37 Norte 0.2 -- -- 77
2020-03-19 07:00:00 18.1 25 Norte 32 Norte 0 -- -- 75
2020-03-19 06:00:00 17.3 6 Nordeste 33 Norte 0.6 -- -- 80
2020-03-19 05:00:00 18 13 Norte 33 Norte 0 -- -- 74
2020-03-19 04:00:00 18 23 Norte 42 Norte 0 -- -- 72
2020-03-19 03:00:00 18 30 Norte 41 Norte 0 -- -- 71
2020-03-19 02:00:00 17.8 22 Norte 44 Norte 0 -- -- 72
2020-03-19 01:00:00 18.2 24 Norte 38 Norte 0 -- -- 70
2020-03-19 00:00:00 18.1 25 Norte 37 Norte 0 -- -- 67
2020-03-18 23:00:00 18.2 26 Norte 35 Norte 0 -- -- 65
2020-03-18 22:00:00 18.1 22 Norte 39 Norte 0 -- -- 62
2020-03-18 21:00:00 18.2 22 Norte 38 Norte 0 -- -- 65
2020-03-18 20:00:00 18 20 Norte 33 Norte 0 -- -- 71
2020-03-18 19:00:00 18.1 20 Norte 39 Norte 0 -- -- 66
2020-03-18 18:00:00 18.5 24 Norte 33 Norte 0 -- -- 63
2020-03-18 17:00:00 18.6 27 Norte 35 Norte 0 -- -- 66
2020-03-18 16:00:00 18.7 25 Norte 36 Norte 0 -- -- 64
2020-03-18 15:00:00 19.1 26 Norte 34 Norte 0 -- -- 61
2020-03-18 14:00:00 18.5 16 Norte 26 Norte 0 -- -- 68
2020-03-18 13:00:00 18 16 Norte 30 Norte 0 -- -- 66
2020-03-18 12:00:00 18.3 25 Norte 36 Norte 0 -- -- 60
2020-03-18 11:00:00 18.7 13 Norte 27 Nordeste 0 -- -- 57
2020-03-18 10:00:00 16.8 20 Norte 33 Norte 0 -- -- 64
2020-03-18 09:00:00 17.5 18 Norte 29 Norte 0 -- -- 61
2020-03-18 08:00:00 16.1 12 Este 23 Este 0 -- -- 67
2020-03-18 07:00:00 15.6 12 Nordeste 28 Nordeste 0 -- -- 72
2020-03-18 06:00:00 16.1 12 Nordeste 29 Este 0 -- -- 68
2020-03-18 05:00:00 15.8 13 Este 31 Este 0 -- -- 65
2020-03-18 04:00:00 15.4 13 Este 39 Norte 0 -- -- 72
2020-03-18 03:00:00 15.9 14 Este 29 Nordeste 0 -- -- 71
2020-03-18 02:00:00 16.4 14 Nordeste 25 Nordeste 0 -- -- 66
2020-03-18 01:00:00 15.9 16 Nordeste 31 Nordeste 0 -- -- 69
2020-03-18 00:00:00 14.8 21 Nordeste 37 Nordeste 0.8 -- -- 82
2020-03-17 23:00:00 14.9 18 Este 44 Nordeste 0.2 -- -- 78
2020-03-17 22:00:00 16.2 13 Este 40 Nordeste 0.2 -- -- 65
2020-03-17 21:00:00 17.1 21 Nordeste 35 Norte 0 -- -- 64
2020-03-17 20:00:00 17.2 16 Nordeste 33 Nordeste 0 -- -- 61
2020-03-17 19:00:00 17.6 17 Nordeste 37 Nordeste 0 -- -- 62
2020-03-17 18:00:00 18.1 20 Nordeste 38 Nordeste 0 -- -- 54
2020-03-17 17:00:00 18.8 22 Nordeste 39 Nordeste 0 -- -- 50
2020-03-17 16:00:00 18.3 22 Nordeste 40 Nordeste 0 -- -- 60
2020-03-17 15:00:00 18.3 22 Nordeste 46 Nordeste 0 -- -- 60
2020-03-17 14:00:00 18.9 24 Nordeste 40 Nordeste 0 -- -- 56
2020-03-17 13:00:00 17.9 24 Nordeste 44 Nordeste 0 -- -- 62
2020-03-17 12:00:00 16.3 21 Este 44 Nordeste 0.2 -- -- 69
2020-03-17 11:00:00 18 22 Nordeste 37 Nordeste 0 -- -- 56
2020-03-17 10:00:00 15.5 15 Este 46 Nordeste 0 -- -- 71
2020-03-17 09:00:00 15.7 14 Nordeste 39 Nordeste 0 -- -- 68
2020-03-17 08:00:00 15.4 17 Nordeste 36 Este 0 -- -- 70
2020-03-17 07:00:00 15.4 23 Nordeste 48 Nordeste 0 -- -- 68
2020-03-17 06:00:00 15.5 17 Nordeste 28 Nordeste 0 -- -- 70
2020-03-17 05:00:00 14.4 16 Este 47 Nordeste 0 -- -- 77
2020-03-17 04:00:00 15.4 17 Nordeste 38 Nordeste 0 -- -- 71
2020-03-17 03:00:00 15.6 24 Nordeste 53 Nordeste 0 -- -- 69
2020-03-17 02:00:00 16.7 26 Nordeste 44 Nordeste 0 -- -- 55
2020-03-17 01:00:00 16.7 22 Nordeste 44 Nordeste 0 -- -- 58
2020-03-17 00:00:00 17.2 21 Nordeste 44 Nordeste 0 -- -- 60
2020-03-16 23:00:00 17.4 22 Nordeste 41 Nordeste 0 -- -- 63
2020-03-16 22:00:00 17.2 22 Nordeste 45 Nordeste 0 -- -- 68
2020-03-16 21:00:00 17.5 25 Nordeste 45 Nordeste 0.2 -- -- 70
2020-03-16 20:00:00 16.8 25 Nordeste 45 Nordeste 0.4 -- -- 76
2020-03-16 19:00:00 17.8 26 Nordeste 41 Nordeste 0 -- -- 70
2020-03-16 18:00:00 18.8 21 Nordeste 43 Nordeste 0 -- -- 66
2020-03-16 17:00:00 18.8 27 Nordeste 44 Norte 0 -- -- 70
2020-03-16 16:00:00 20.1 19 Nordeste 48 Norte 0 -- -- 58
2020-03-16 15:00:00 20 19 Nordeste 45 Nordeste 0 -- -- 57
2020-03-16 14:00:00 20.4 19 Nordeste 49 Nordeste 0 -- -- 52
2020-03-16 13:00:00 20.5 23 Nordeste 43 Nordeste 0 -- -- 50
2020-03-16 12:00:00 19.3 22 Nordeste 42 Nordeste 0 -- -- 56
2020-03-16 11:00:00 20.1 22 Nordeste 40 Nordeste 0 -- -- 51
2020-03-16 10:00:00 18.6 22 Nordeste 43 Nordeste 0 -- -- 55
2020-03-16 09:00:00 17.7 22 Nordeste 41 Nordeste 0 -- -- 64
2020-03-16 08:00:00 17 28 Nordeste 53 Nordeste 0 -- -- 68
2020-03-16 07:00:00 17.7 20 Nordeste 37 Nordeste 0 -- -- 65
2020-03-16 06:00:00 17.8 19 Nordeste 39 Norte 0 -- -- 64
2020-03-16 05:00:00 17.4 27 Nordeste 44 Norte 0 -- -- 71
2020-03-16 04:00:00 17.7 16 Nordeste 31 Nordeste 0 -- -- 72
2020-03-16 03:00:00 17.9 20 Nordeste 31 Nordeste 0 -- -- 73
2020-03-16 02:00:00 17.8 16 Nordeste 33 Nordeste 0 -- -- 72
2020-03-16 01:00:00 17.7 19 Nordeste 32 Nordeste 0 -- -- 70
2020-03-16 00:00:00 17.8 13 Nordeste 32 Nordeste 0 -- -- 70
2020-03-15 23:00:00 17.7 17 Nordeste 37 Este 1 -- -- 67
2020-03-15 22:00:00 18.3 15 Nordeste 32 Este 0 -- -- 65
2020-03-15 21:00:00 18.3 17 Nordeste 30 Nordeste 0 -- -- 63
2020-03-15 20:00:00 18.1 15 Nordeste 35 Nordeste 0 -- -- 66
2020-03-15 19:00:00 18 22 Nordeste 35 Nordeste 0 -- -- 67
2020-03-15 18:00:00 18.5 21 Nordeste 36 Norte 0 -- -- 68
2020-03-15 17:00:00 18.8 19 Norte 39 Norte 0.2 -- -- 67
2020-03-15 16:00:00 18 15 Este 42 Norte 0.2 -- -- 66
2020-03-15 15:00:00 20.1 22 Norte 35 Norte 0 -- -- 56
2020-03-15 14:00:00 21.1 15 Nordeste 32 Norte 0 -- -- 43
2020-03-15 13:00:00 20.2 16 Norte 31 Norte 0 -- -- 55
2020-03-15 12:00:00 19.3 18 Norte 31 Nordeste 0 -- -- 57
2020-03-15 11:00:00 19.1 16 Nordeste 30 Nordeste 0 -- -- 56
2020-03-15 10:00:00 18.7 14 Nordeste 27 Nordeste 0 -- -- 62
2020-03-15 09:00:00 17.8 12 Nordeste 23 Nordeste 0 -- -- 67
2020-03-15 08:00:00 17.6 14 Nordeste 30 Nordeste 0 -- -- 66
2020-03-15 07:00:00 17 15 Nordeste 30 Nordeste 0 -- -- 70
2020-03-15 06:00:00 17.4 11 Nordeste 22 Nordeste 0 -- -- 65
2020-03-15 05:00:00 17.3 12 Nordeste 32 Nordeste 0 -- -- 66
2020-03-15 04:00:00 17.2 18 Nordeste 26 Nordeste 0 -- -- 72
2020-03-15 03:00:00 17.2 12 Nordeste 22 Nordeste 0 -- -- 70
2020-03-15 02:00:00 17 14 Nordeste 28 Nordeste 0 -- -- 69
2020-03-15 01:00:00 17.7 9 Nordeste 19 Nordeste 0 -- -- 65
2020-03-15 00:00:00 17.6 8 Nordeste 21 Este 0 -- -- 63
2020-03-14 23:00:00 17.7 10 Nordeste 22 Nordeste 0 -- -- 61
2020-03-14 22:00:00 17.7 12 Nordeste 27 Nordeste 0 -- -- 60
2020-03-14 21:00:00 17.8 11 Nordeste 21 Nordeste 0 -- -- 61
2020-03-14 20:00:00 18 12 Nordeste 24 Norte 0 -- -- 59
2020-03-14 19:00:00 18.5 15 Nordeste 30 Nordeste 0 -- -- 56
2020-03-14 18:00:00 19.8 16 Nordeste 38 Nordeste 0 -- -- 47
2020-03-14 17:00:00 20.2 19 Nordeste 32 Nordeste 0 -- -- 51
2020-03-14 16:00:00 20.7 18 Nordeste 37 Este 0 -- -- 51
2020-03-14 15:00:00 20.5 18 Nordeste 41 Nordeste 0 -- -- 52
2020-03-14 14:00:00 20.1 27 Nordeste 48 Nordeste 0 -- -- 55
2020-03-14 13:00:00 20.1 29 Nordeste 50 Nordeste 0 -- -- 59
2020-03-14 12:00:00 20.5 28 Nordeste 47 Nordeste 0 -- -- 59
2020-03-14 11:00:00 19.9 28 Nordeste 51 Nordeste 0 -- -- 60
2020-03-14 10:00:00 19.9 26 Nordeste 40 Nordeste 0 -- -- 55
2020-03-14 09:00:00 19 22 Nordeste 39 Nordeste 0 -- -- 59
2020-03-14 08:00:00 17.6 22 Nordeste 41 Nordeste 0 -- -- 67
2020-03-14 07:00:00 17.5 23 Nordeste 45 Nordeste 0 -- -- 66
2020-03-14 06:00:00 17.7 24 Nordeste 42 Nordeste 0 -- -- 69
2020-03-14 05:00:00 17.5 19 Nordeste 40 Nordeste 0 -- -- 67
2020-03-14 04:00:00 17.7 23 Nordeste 40 Nordeste 0 -- -- 70
2020-03-14 03:00:00 17.9 28 Nordeste 49 Nordeste 0 -- -- 71
2020-03-14 02:00:00 18 27 Nordeste 50 Nordeste 0 -- -- 73
2020-03-14 01:00:00 18.2 25 Nordeste 42 Nordeste 0 -- -- 73
2020-03-14 00:00:00 18.4 24 Nordeste 45 Nordeste 0 -- -- 69
2020-03-13 23:00:00 18.7 21 Nordeste 40 Nordeste 0 -- -- 63
2020-03-13 22:00:00 18.4 26 Nordeste 46 Nordeste 0 -- -- 69
2020-03-13 21:00:00 18.4 25 Nordeste 42 Nordeste 0 -- -- 70
2020-03-13 20:00:00 18.6 23 Nordeste 39 Norte 0 -- -- 70
2020-03-13 19:00:00 19.1 21 Nordeste 45 Nordeste 0 -- -- 62
2020-03-13 18:00:00 19.3 24 Nordeste 45 Nordeste 0 -- -- 64
2020-03-13 17:00:00 19.5 28 Nordeste 47 Nordeste 0 -- -- 63
2020-03-13 16:00:00 19.9 30 Nordeste 47 Nordeste 0 -- -- 64
2020-03-13 15:00:00 21 25 Nordeste 54 Nordeste 0 -- -- 60
2020-03-13 14:00:00 21.1 33 Nordeste 53 Nordeste 0 -- -- 59
2020-03-13 13:00:00 21 24 Nordeste 55 Este 0 -- -- 60
2020-03-13 12:00:00 20.8 27 Nordeste 59 Nordeste 0 -- -- 59
2020-03-13 11:00:00 19.5 27 Nordeste 58 Nordeste 0 -- -- 63
2020-03-13 10:00:00 19.4 31 Nordeste 58 Nordeste 0 -- -- 64
2020-03-13 09:00:00 18.7 29 Nordeste 51 Nordeste 0 -- -- 66
2020-03-13 08:00:00 17.9 23 Nordeste 52 Nordeste 0 -- -- 70
2020-03-13 07:00:00 17.8 22 Nordeste 56 Nordeste 0 -- -- 70
2020-03-13 06:00:00 17.8 26 Nordeste 46 Nordeste 0 -- -- 71
2020-03-13 05:00:00 17.9 26 Nordeste 46 Nordeste 0 -- -- 71
2020-03-13 04:00:00 17.9 20 Nordeste 50 Nordeste 0 -- -- 72
2020-03-13 03:00:00 17.9 16 Nordeste 40 Norte 0 -- -- 73
2020-03-13 02:00:00 18.1 14 Norte 41 Nordeste 0 -- -- 73
2020-03-13 01:00:00 18.3 18 Norte 39 Norte 0 -- -- 73
2020-03-13 00:00:00 18.9 10 Este 30 Este 0 -- -- 69
2020-03-12 23:00:00 18.8 17 Este 37 Este 0 -- -- 72
2020-03-12 22:00:00 19.1 15 Este 29 Sudeste 0 -- -- 73
2020-03-12 21:00:00 19.5 18 Este 28 Este 0 -- -- 74
2020-03-12 20:00:00 20 19 Este 31 Este 0 -- -- 73
2020-03-12 19:00:00 21 14 Este 23 Nordeste 0 -- -- 70
2020-03-12 18:00:00 23.2 12 Este 28 Nordeste 0 -- -- 62
2020-03-12 17:00:00 23.3 16 Nordeste 28 Nordeste 0 -- -- 64
2020-03-12 16:00:00 24.6 13 Nordeste 24 Este 0 -- -- 60
2020-03-12 15:00:00 23.5 6 Sur 11 Sur 0 -- -- 65
2020-03-12 14:00:00 22.2 10 Sur 18 Sudoeste 0 -- -- 73
2020-03-12 13:00:00 22.1 10 Sudoeste 17 Sur 0 -- -- 71
2020-03-12 12:00:00 22.3 10 Sur 14 Sur 0 -- -- 67
2020-03-12 11:00:00 22.8 8 Sur 10 Sur 0 -- -- 58
2020-03-12 10:00:00 22.7 3 Noroeste 6 Oeste 0 -- -- 56
2020-03-12 09:00:00 22.5 3 Sur 9 Sur 0 -- -- 57
2020-03-12 08:00:00 19.4 5 Sudeste 18 Sudeste 0 -- -- 63
2020-03-12 07:00:00 19 5 Sur 16 Este 0 -- -- 65
2020-03-12 06:00:00 17.6 6 Sur 12 Sur 0 -- -- 76
2020-03-12 05:00:00 18 5 Oeste 9 Sur 0 -- -- 77
2020-03-12 04:00:00 18.2 6 Sur 28 Este 0 -- -- 74
2020-03-12 03:00:00 19 11 Este 22 Este 0 -- -- 62
2020-03-12 02:00:00 18.6 7 Sudeste 19 Este 0 -- -- 65
2020-03-12 01:00:00 18.6 4 Norte 23 Este 0 -- -- 68
2020-03-12 00:00:00 18.6 4 Este 16 Este 0 -- -- 73
2020-03-11 23:00:00 18.7 3 Sudeste 6 Sur 0 -- -- 86
2020-03-11 22:00:00 18.9 2 Sur 5 Sudeste 0 -- -- 84
2020-03-11 21:00:00 19.3 3 Sudeste 6 Sur 0 -- -- 83
2020-03-11 20:00:00 19.8 3 Sudeste 7 Sur 0 -- -- 81
2020-03-11 19:00:00 21.1 3 Oeste 10 Sur 0 -- -- 76
2020-03-11 18:00:00 21.1 4 Sudeste 9 Sur 0 -- -- 74
2020-03-11 17:00:00 23.7 6 Sudoeste 13 Sur 0 -- -- 68
2020-03-11 16:00:00 22.5 9 Sur 12 Sur 0 -- -- 66
2020-03-11 15:00:00 21.7 4 Sudoeste 11 Sudoeste 0 -- -- 69
2020-03-11 14:00:00 21.2 9 Sur 14 Sudoeste 0 -- -- 70
2020-03-11 13:00:00 21.4 9 Sudoeste 13 Oeste 0 -- -- 68
2020-03-11 12:00:00 21.8 5 Sudoeste 9 Sudeste 0 -- -- 68
2020-03-11 11:00:00 19.3 6 Sudeste 24 Nordeste 0 -- -- 71
2020-03-11 10:00:00 18.6 12 Nordeste 23 Nordeste 0 -- -- 69
2020-03-11 09:00:00 17.7 5 Este 9 Este 0 -- -- 67
2020-03-11 08:00:00 17 5 Este 9 Este 0 -- -- 66
2020-03-11 07:00:00 16.4 6 Este 8 Este 0 -- -- 58
2020-03-11 06:00:00 17.5 7 Sudeste 17 Este 0 -- -- 64
2020-03-11 05:00:00 18.5 9 Sudeste 29 Sur 0 -- -- 73
2020-03-11 04:00:00 18.4 16 Sudeste 30 Sur 0 -- -- 61
2020-03-11 03:00:00 17.6 11 Sudeste 30 Este 0 -- -- 66
2020-03-11 02:00:00 17.9 10 Este 26 Sudeste 0 -- -- 66
2020-03-11 01:00:00 18.5 10 Este 28 Este 0 -- -- 62
2020-03-11 00:00:00 18.2 18 Este 30 Sudeste 0 -- -- 68
2020-03-10 23:00:00 18.7 12 Este 30 Este 0 -- -- 68
2020-03-10 22:00:00 18.8 17 Este 27 Sudeste 0 -- -- 70
2020-03-10 21:00:00 19.1 11 Sudeste 24 Este 0 -- -- 72
2020-03-10 20:00:00 19.6 14 Este 22 Este 0 -- -- 72
2020-03-10 19:00:00 20.7 9 Este 23 Nordeste 0 -- -- 67
2020-03-10 18:00:00 23.1 9 Nordeste 22 Nordeste 0 -- -- 58
2020-03-10 17:00:00 24.5 7 Norte 21 Nordeste 0 -- -- 54
2020-03-10 16:00:00 23.1 5 Sudeste 16 Sur 0 -- -- 63
2020-03-10 15:00:00 23.7 8 Sur 15 Sur 0 -- -- 62
2020-03-10 14:00:00 22.9 10 Sur 14 Sudoeste 0 -- -- 65
2020-03-10 13:00:00 22.4 10 Sur 14 Sur 0 -- -- 61
2020-03-10 12:00:00 22.6 8 Sur 10 Sur 0 -- -- 56
2020-03-10 11:00:00 22.2 5 Sudoeste 16 Este 0 -- -- 56
2020-03-10 10:00:00 22.3 7 Sudeste 28 Sudeste 0 -- -- 53
2020-03-10 09:00:00 20.6 13 Sudeste 23 Sudeste 0 -- -- 55
2020-03-10 08:00:00 19.1 13 Sudeste 25 Sudeste 0 -- -- 52
2020-03-10 07:00:00 18.8 14 Sudeste 27 Sudeste 0 -- -- 57
2020-03-10 06:00:00 18.1 10 Sudeste 29 Nordeste 0 -- -- 65
2020-03-10 05:00:00 18.7 13 Este 32 Nordeste 0 -- -- 65
2020-03-10 04:00:00 19.1 16 Nordeste 33 Este 0 -- -- 56
2020-03-10 03:00:00 20.1 21 Norte 34 Nordeste 0 -- -- 49
2020-03-10 02:00:00 22.5 21 Nordeste 39 Nordeste 0 -- -- 22
2020-03-10 01:00:00 22 20 Nordeste 32 Nordeste 0 -- -- 31
2020-03-10 00:00:00 22.2 18 Nordeste 33 Nordeste 0 -- -- 27
2020-03-09 23:00:00 21.6 22 Nordeste 40 Este 0 -- -- 33
2020-03-09 22:00:00 19.6 12 Este 36 Nordeste 0 -- -- 66
2020-03-09 21:00:00 20 16 Este 30 Este 0 -- -- 62
2020-03-09 20:00:00 21.5 9 Este 27 Nordeste 0 -- -- 57
2020-03-09 19:00:00 21.7 15 Nordeste 32 Nordeste 0 -- -- 62
2020-03-09 18:00:00 24.3 9 Este 27 Este 0 -- -- 56
2020-03-09 17:00:00 25.2 9 Nordeste 42 Nordeste 0 -- -- 54
2020-03-09 16:00:00 23.3 19 Nordeste 35 Nordeste 0 -- -- 64
2020-03-09 15:00:00 25.7 8 Sudoeste 13 Nordeste 0 -- -- 55
2020-03-09 14:00:00 25.1 4 Sudoeste 10 Sudeste 0 -- -- 46
2020-03-09 13:00:00 22.7 8 Sudeste 27 Sudeste 0 -- -- 54
2020-03-09 12:00:00 24.4 7 Sur 39 Este 0 -- -- 52
2020-03-09 11:00:00 22.3 10 Sudeste 43 Este 0 -- -- 57
2020-03-09 10:00:00 22.7 12 Este 42 Nordeste 0 -- -- 54
2020-03-09 09:00:00 19.6 28 Nordeste 47 Nordeste 0 -- -- 66
2020-03-09 08:00:00 19.3 18 Este 47 Este 0 -- -- 62
2020-03-09 07:00:00 19.3 16 Este 32 Este 0 -- -- 57
2020-03-09 06:00:00 21.8 13 Nordeste 29 Nordeste 0 -- -- 30
2020-03-09 05:00:00 20.9 14 Nordeste 27 Nordeste 0 -- -- 35
2020-03-09 04:00:00 21.3 18 Nordeste 36 Nordeste 0 -- -- 33
2020-03-09 03:00:00 19.7 24 Nordeste 39 Nordeste 0 -- -- 54
2020-03-09 02:00:00 21.2 16 Nordeste 36 Nordeste 0 -- -- 36
2020-03-09 01:00:00 21 17 Nordeste 34 Nordeste 0 -- -- 41
2020-03-09 00:00:00 19.8 25 Nordeste 42 Nordeste 0 -- -- 57
2020-03-08 23:00:00 21.4 29 Nordeste 51 Nordeste 0 -- -- 42
2020-03-08 22:00:00 20.7 21 Nordeste 42 Este 0 -- -- 53
2020-03-08 21:00:00 19.7 22 Nordeste 46 Nordeste 0 -- -- 69
2020-03-08 20:00:00 20.4 13 Este 30 Este 0 -- -- 66
2020-03-08 19:00:00 21.7 13 Nordeste 42 Nordeste 0 -- -- 61
2020-03-08 18:00:00 21.9 7 Sudeste 21 Sudeste 0 -- -- 70
2020-03-08 17:00:00 24.6 9 Sudeste 29 Nordeste 0 -- -- 55
2020-03-08 16:00:00 23.3 15 Este 37 Este 0 -- -- 60
2020-03-08 15:00:00 22.1 21 Nordeste 52 Nordeste 0 -- -- 65
2020-03-08 14:00:00 21.6 27 Nordeste 58 Nordeste 0 -- -- 66
2020-03-08 13:00:00 21.1 33 Nordeste 62 Norte 0 -- -- 68
2020-03-08 12:00:00 20.5 36 Nordeste 55 Norte 0 -- -- 69
2020-03-08 11:00:00 20.2 29 Norte 50 Nordeste 0 -- -- 69
2020-03-08 10:00:00 19.4 34 Nordeste 70 Nordeste 0 -- -- 70
2020-03-08 09:00:00 19 30 Nordeste 68 Nordeste 0 -- -- 70
2020-03-08 08:00:00 18.6 30 Nordeste 49 Nordeste 0 -- -- 66
2020-03-08 07:00:00 17.8 32 Nordeste 50 Nordeste 0 -- -- 72
2020-03-08 06:00:00 17.8 27 Nordeste 53 Norte 0 -- -- 73
2020-03-08 05:00:00 17.9 28 Nordeste 52 Nordeste 0 -- -- 71
2020-03-08 04:00:00 17.7 26 Nordeste 50 Norte 0 -- -- 72
2020-03-08 03:00:00 17.8 27 Nordeste 62 Norte 0 -- -- 72
2020-03-08 02:00:00 17.9 26 Norte 50 Nordeste 0 -- -- 71
2020-03-08 01:00:00 18.1 26 Nordeste 46 Norte 0 -- -- 69
2020-03-08 00:00:00 18.2 24 Nordeste 46 Norte 0 -- -- 70
2020-03-07 23:00:00 18.3 26 Nordeste 43 Nordeste 0 -- -- 69
2020-03-07 22:00:00 18.3 21 Nordeste 54 Nordeste 0 -- -- 67
2020-03-07 21:00:00 18.3 26 Nordeste 41 Nordeste 0 -- -- 65
2020-03-07 20:00:00 18.3 24 Nordeste 44 Nordeste 0 -- -- 67
2020-03-07 19:00:00 18.5 25 Nordeste 48 Nordeste 0 -- -- 65
2020-03-07 18:00:00 19.2 33 Nordeste 54 Nordeste 0 -- -- 62
2020-03-07 17:00:00 19.9 31 Norte 54 Nordeste 0 -- -- 58
2020-03-07 16:00:00 20.1 31 Norte 51 Nordeste 0 -- -- 58
2020-03-07 15:00:00 20.4 27 Nordeste 53 Nordeste 0 -- -- 56
2020-03-07 14:00:00 20.3 28 Nordeste 58 Norte 0 -- -- 56
2020-03-07 13:00:00 20 29 Nordeste 53 Nordeste 0 -- -- 57
2020-03-07 12:00:00 19.9 33 Nordeste 53 Nordeste 0 -- -- 54
2020-03-07 11:00:00 19.4 28 Nordeste 46 Nordeste 0 -- -- 57
2020-03-07 10:00:00 18.6 23 Nordeste 43 Nordeste 0 -- -- 59
2020-03-07 09:00:00 18.1 24 Nordeste 47 Nordeste 0 -- -- 61
2020-03-07 08:00:00 17.8 22 Nordeste 42 Nordeste 0 -- -- 63
2020-03-07 07:00:00 17.6 20 Nordeste 39 Nordeste 0 -- -- 63
2020-03-07 06:00:00 17.5 26 Nordeste 46 Nordeste 0 -- -- 64
2020-03-07 05:00:00 17.4 26 Nordeste 46 Nordeste 0 -- -- 63
2020-03-07 04:00:00 17.5 25 Nordeste 45 Nordeste 0 -- -- 60
2020-03-07 03:00:00 17.6 25 Nordeste 48 Nordeste 0 -- -- 62
2020-03-07 02:00:00 17.5 24 Nordeste 44 Nordeste 0 -- -- 64
2020-03-07 01:00:00 17.4 27 Nordeste 48 Nordeste 0 -- -- 61
2020-03-07 00:00:00 17.5 26 Nordeste 48 Nordeste 0 -- -- 62
2020-03-06 23:00:00 17.8 25 Nordeste 45 Nordeste 0 -- -- 60
2020-03-06 22:00:00 17.8 23 Nordeste 53 Nordeste 0 -- -- 60
2020-03-06 21:00:00 18 31 Nordeste 55 Nordeste 0 -- -- 59
2020-03-06 20:00:00 18.1 27 Nordeste 54 Nordeste 0 -- -- 58
2020-03-06 19:00:00 18.1 32 Nordeste 53 Nordeste 0 -- -- 58
2020-03-06 18:00:00 18.7 31 Nordeste 52 Nordeste 0 -- -- 63
2020-03-06 17:00:00 19.5 33 Nordeste 57 Nordeste 0 -- -- 55
2020-03-06 16:00:00 19.7 31 Nordeste 55 Nordeste 0 -- -- 54
2020-03-06 15:00:00 19.6 28 Nordeste 60 Nordeste 0 -- -- 57
2020-03-06 14:00:00 19.2 35 Nordeste 54 Nordeste 0 -- -- 57
2020-03-06 13:00:00 19.6 29 Nordeste 55 Nordeste 0 -- -- 55
2020-03-06 12:00:00 18.6 28 Nordeste 53 Nordeste 0 -- -- 62
2020-03-06 11:00:00 17.4 27 Nordeste 53 Nordeste 0 -- -- 70
2020-03-06 10:00:00 17.7 31 Nordeste 55 Nordeste 0 -- -- 64
2020-03-06 09:00:00 17.1 26 Nordeste 47 Nordeste 0 -- -- 69
2020-03-06 08:00:00 17.1 22 Nordeste 55 Nordeste 0 -- -- 71
2020-03-06 07:00:00 16.5 23 Nordeste 48 Nordeste 0.8 -- -- 82
2020-03-06 06:00:00 16.7 27 Nordeste 51 Nordeste 0 -- -- 85
2020-03-06 05:00:00 17 25 Nordeste 47 Nordeste 0.2 -- -- 85
2020-03-06 04:00:00 17.6 25 Nordeste 51 Nordeste 0.2 -- -- 82
2020-03-06 03:00:00 18.2 21 Nordeste 44 Nordeste 0 -- -- 76
2020-03-06 02:00:00 19.5 22 Nordeste 43 Nordeste 0 -- -- 64
2020-03-06 01:00:00 19.5 22 Este 49 Nordeste 0 -- -- 61
2020-03-06 00:00:00 19.1 30 Nordeste 53 Nordeste 0 -- -- 69
2020-03-05 23:00:00 18.8 24 Nordeste 52 Nordeste 0 -- -- 68
2020-03-05 22:00:00 18.7 24 Nordeste 46 Nordeste 0 -- -- 67
2020-03-05 21:00:00 18.7 24 Nordeste 42 Nordeste 0 -- -- 67
2020-03-05 20:00:00 18.8 24 Nordeste 47 Nordeste 0 -- -- 68
2020-03-05 19:00:00 19.4 24 Nordeste 53 Norte 0 -- -- 66
2020-03-05 18:00:00 19.9 33 Nordeste 57 Nordeste 0 -- -- 62
2020-03-05 17:00:00 20.3 36 Norte 63 Norte 0 -- -- 62
2020-03-05 16:00:00 20.5 35 Norte 61 Nordeste 0 -- -- 62
2020-03-05 15:00:00 20.9 32 Nordeste 71 Nordeste 0 -- -- 61
2020-03-05 14:00:00 20.7 35 Nordeste 58 Nordeste 0 -- -- 61
2020-03-05 13:00:00 20.9 30 Nordeste 56 Nordeste 0 -- -- 62
2020-03-05 12:00:00 20.9 31 Norte 54 Nordeste 0 -- -- 64
2020-03-05 11:00:00 20.9 33 Nordeste 51 Nordeste 0 -- -- 62
2020-03-05 10:00:00 19.6 24 Nordeste 47 Nordeste 0 -- -- 69
2020-03-05 09:00:00 18.9 28 Nordeste 48 Nordeste 0 -- -- 71
2020-03-05 08:00:00 18 30 Norte 53 Norte 0 -- -- 74
2020-03-05 07:00:00 17.9 29 Nordeste 46 Nordeste 0 -- -- 75
2020-03-05 06:00:00 17.8 22 Nordeste 40 Norte 0 -- -- 76
2020-03-05 05:00:00 17.8 17 Nordeste 37 Nordeste 0 -- -- 74
2020-03-05 04:00:00 18 20 Nordeste 35 Nordeste 0 -- -- 74
2020-03-05 03:00:00 18.2 19 Norte 39 Nordeste 0 -- -- 74
2020-03-05 02:00:00 18.2 21 Nordeste 40 Nordeste 0 -- -- 74
2020-03-05 01:00:00 18.7 15 Nordeste 40 Nordeste 0 -- -- 71
2020-03-05 00:00:00 18.8 10 Nordeste 36 Norte 0 -- -- 73
2020-03-04 23:00:00 19.1 16 Nordeste 44 Nordeste 0 -- -- 73
2020-03-04 22:00:00 19.3 13 Norte 43 Nordeste 0 -- -- 71
2020-03-04 21:00:00 19.3 12 Nordeste 25 Este 0 -- -- 74
2020-03-04 20:00:00 20.6 6 Sudeste 26 Sudeste 0 -- -- 74
2020-03-04 19:00:00 21.4 17 Sudeste 27 Sudeste 0 -- -- 65
2020-03-04 18:00:00 23.8 11 Sur 25 Sur 0 -- -- 58
2020-03-04 17:00:00 25.2 7 Sudeste 30 Nordeste 0 -- -- 54
2020-03-04 16:00:00 24.7 9 Sudoeste 33 Este 0 -- -- 55
2020-03-04 15:00:00 24.3 11 Nordeste 37 Nordeste 0 -- -- 57
2020-03-04 14:00:00 22.6 18 Nordeste 39 Norte 0 -- -- 64
2020-03-04 13:00:00 21.3 21 Norte 33 Norte 0 -- -- 69
2020-03-04 12:00:00 21.4 19 Norte 34 Norte 0 -- -- 68
2020-03-04 11:00:00 21.4 13 Sur 19 Sur 0 -- -- 64
2020-03-04 10:00:00 20.7 11 Oeste 23 Sudeste 0 -- -- 65
2020-03-04 09:00:00 20.2 12 Sudeste 22 Sudeste 0 -- -- 60
2020-03-04 08:00:00 18.1 13 Sudeste 25 Sudeste 0 -- -- 68
2020-03-04 07:00:00 18.7 15 Sur 29 Sur 0 -- -- 63
2020-03-04 06:00:00 18 11 Sur 22 Sudeste 0 -- -- 69
2020-03-04 05:00:00 17.9 3 Este 20 Sudeste 0 -- -- 64
2020-03-04 04:00:00 18.1 9 Sur 18 Este 0 -- -- 70
2020-03-04 03:00:00 18.1 10 Este 20 Sudeste 0 -- -- 72
2020-03-04 02:00:00 18.3 10 Sudeste 19 Sudoeste 0 -- -- 73
2020-03-04 01:00:00 19.1 11 Oeste 21 Sudeste 0 -- -- 74
2020-03-04 00:00:00 19.2 12 Sur 27 Sudeste 0 -- -- 69
2020-03-03 23:00:00 19.2 12 Sudeste 31 Nordeste 0 -- -- 66
2020-03-03 22:00:00 19.1 9 Sudoeste 40 Norte 0 -- -- 68
2020-03-03 21:00:00 18.8 20 Este 53 Nordeste 0 -- -- 71
2020-03-03 20:00:00 18.7 23 Nordeste 49 Nordeste 0 -- -- 71
2020-03-03 19:00:00 19.4 22 Nordeste 42 Nordeste 0 -- -- 70
2020-03-03 18:00:00 20.6 22 Nordeste 51 Nordeste 0 -- -- 65
2020-03-03 17:00:00 21.1 29 Nordeste 49 Nordeste 0 -- -- 63
2020-03-03 16:00:00 21.8 23 Norte 56 Nordeste 0 -- -- 61
2020-03-03 15:00:00 21.9 28 Norte 53 Nordeste 0 -- -- 61
2020-03-03 14:00:00 21.2 33 Norte 48 Norte 0 -- -- 63
2020-03-03 13:00:00 21.7 21 Norte 43 Nordeste 0 -- -- 62
2020-03-03 12:00:00 20.5 12 Este 37 Este 0 -- -- 68
2020-03-03 11:00:00 20.8 21 Nordeste 43 Este 0 -- -- 63
2020-03-03 10:00:00 19.9 12 Sudeste 33 Este 0 -- -- 67
2020-03-03 09:00:00 19.3 15 Este 54 Este 0 -- -- 67
2020-03-03 08:00:00 18.2 25 Nordeste 45 Nordeste 0 -- -- 72
2020-03-03 07:00:00 18 22 Nordeste 44 Nordeste 0 -- -- 73
2020-03-03 06:00:00 18.1 21 Nordeste 43 Nordeste 0 -- -- 72
2020-03-03 05:00:00 18.4 19 Nordeste 50 Nordeste 0 -- -- 72
2020-03-03 04:00:00 18.3 19 Nordeste 43 Nordeste 0 -- -- 71
2020-03-03 03:00:00 18.6 19 Este 49 Nordeste 0 -- -- 70
2020-03-03 02:00:00 18.6 27 Nordeste 51 Norte 0 -- -- 68
2020-03-03 01:00:00 19 31 Norte 54 Norte 0 -- -- 65
2020-03-03 00:00:00 19.1 28 Norte 54 Nordeste 0 -- -- 64
2020-03-02 23:00:00 19.7 28 Norte 46 Nordeste 0 -- -- 58
2020-03-02 22:00:00 19.1 25 Nordeste 45 Nordeste 0 -- -- 64
2020-03-02 21:00:00 19.1 19 Nordeste 44 Nordeste 0 -- -- 71
2020-03-02 20:00:00 19.5 23 Nordeste 44 Nordeste 0 -- -- 71
2020-03-02 19:00:00 19.7 22 Nordeste 42 Nordeste 0 -- -- 69
2020-03-02 18:00:00 21.1 22 Nordeste 40 Nordeste 0 -- -- 61
2020-03-02 17:00:00 21.9 20 Nordeste 41 Nordeste 0 -- -- 57
2020-03-02 16:00:00 22.2 23 Nordeste 50 Nordeste 0 -- -- 54
2020-03-02 15:00:00 22.3 22 Nordeste 42 Norte 0 -- -- 52
2020-03-02 14:00:00 22.1 24 Nordeste 39 Nordeste 0 -- -- 52
2020-03-02 13:00:00 22.2 18 Nordeste 42 Norte 0 -- -- 58
2020-03-02 12:00:00 21.9 18 Nordeste 39 Norte 0 -- -- 55
2020-03-02 11:00:00 21.2 23 Norte 40 Nordeste 0 -- -- 59
2020-03-02 10:00:00 20.6 12 Nordeste 30 Nordeste 0 -- -- 59
2020-03-02 09:00:00 19.5 18 Nordeste 32 Nordeste 0 -- -- 62
2020-03-02 08:00:00 18.9 14 Este 28 Este 0 -- -- 60
2020-03-02 07:00:00 18.6 10 Este 22 Sudeste 0 -- -- 62
2020-03-02 06:00:00 18.3 12 Nordeste 23 Nordeste 0 -- -- 70
2020-03-02 05:00:00 18.3 13 Nordeste 25 Este 0 -- -- 64
2020-03-02 04:00:00 18.5 14 Nordeste 27 Nordeste 0 -- -- 64
2020-03-02 03:00:00 18.4 13 Nordeste 30 Norte 0 -- -- 65
2020-03-02 02:00:00 18.5 15 Norte 25 Nordeste 0 -- -- 67
2020-03-02 01:00:00 18.9 13 Nordeste 24 Nordeste 0 -- -- 67
2020-03-02 00:00:00 18.7 12 Nordeste 28 Nordeste 0 -- -- 67
2020-03-01 23:00:00 18.6 16 Nordeste 35 Nordeste 0 -- -- 67
2020-03-01 22:00:00 18.5 18 Nordeste 31 Nordeste 0 -- -- 65
2020-03-01 21:00:00 18.5 20 Nordeste 33 Nordeste 0 -- -- 67
2020-03-01 20:00:00 18.6 16 Nordeste 30 Nordeste 0 -- -- 67
2020-03-01 19:00:00 19.1 14 Norte 45 Norte 0 -- -- 65
2020-03-01 18:00:00 19.5 28 Norte 42 Norte 0 -- -- 65
2020-03-01 17:00:00 21.5 18 Nordeste 39 Norte 0 -- -- 60
2020-03-01 16:00:00 21.2 24 Norte 39 Nordeste 0 -- -- 61
2020-03-01 15:00:00 23.8 12 Nordeste 30 Nordeste 0 -- -- 52
2020-03-01 14:00:00 23 15 Nordeste 31 Nordeste 0 -- -- 52
2020-03-01 13:00:00 23.3 13 Este 30 Nordeste 0 -- -- 51
2020-03-01 12:00:00 21.7 13 Nordeste 32 Nordeste 0 -- -- 57
2020-03-01 11:00:00 21.6 8 Nordeste 28 Nordeste 0 -- -- 58
2020-03-01 10:00:00 19.9 12 Nordeste 37 Nordeste 0 -- -- 64
2020-03-01 09:00:00 18 22 Nordeste 38 Nordeste 0 -- -- 70
2020-03-01 08:00:00 17.2 21 Nordeste 36 Nordeste 0 -- -- 74
2020-03-01 07:00:00 17.1 12 Norte 25 Nordeste 0 -- -- 74
2020-03-01 06:00:00 17.1 4 Este 28 Norte 0 -- -- 72
2020-03-01 05:00:00 17.2 8 Norte 30 Nordeste 0 -- -- 73
2020-03-01 04:00:00 17.4 14 Norte 44 Norte 0 -- -- 73
2020-03-01 03:00:00 17.5 24 Nordeste 38 Nordeste 0 -- -- 74
2020-03-01 02:00:00 17.5 10 Nordeste 39 Nordeste 0 -- -- 73
2020-03-01 01:00:00 17.9 18 Nordeste 33 Nordeste 0 -- -- 71
2020-03-01 00:00:00 18 10 Nordeste 29 Nordeste 0 -- -- 69
2020-02-29 23:00:00 18.2 13 Nordeste 34 Este 0 -- -- 68
2020-02-29 22:00:00 18.4 19 Nordeste 36 Este 0 -- -- 67
2020-02-29 21:00:00 18.5 16 Nordeste 34 Nordeste 0 -- -- 66
2020-02-29 20:00:00 18.2 22 Norte 48 Nordeste 0 -- -- 69
2020-02-29 19:00:00 18.6 30 Norte 42 Norte 0 -- -- 69
2020-02-29 18:00:00 19.8 27 Norte 46 Norte 0 -- -- 64
2020-02-29 17:00:00 19.7 25 Norte 46 Norte 0 -- -- 65
2020-02-29 16:00:00 20.9 27 Norte 40 Norte 0 -- -- 60
2020-02-29 15:00:00 21.4 29 Norte 41 Norte 0 -- -- 57
2020-02-29 14:00:00 22.4 27 Norte 53 Nordeste 0 -- -- 54
2020-02-29 13:00:00 20.9 33 Nordeste 53 Nordeste 0 -- -- 59
2020-02-29 12:00:00 21.3 27 Nordeste 47 Norte 0 -- -- 57
2020-02-29 11:00:00 21.2 22 Nordeste 46 Nordeste 0 -- -- 56
2020-02-29 10:00:00 19.5 24 Nordeste 46 Nordeste 0 -- -- 62
2020-02-29 09:00:00 18.7 14 Este 42 Nordeste 0 -- -- 62
2020-02-29 08:00:00 17.5 24 Norte 41 Norte 0 -- -- 70
2020-02-29 07:00:00 17.6 24 Norte 39 Norte 0 -- -- 68
2020-02-29 06:00:00 17.6 14 Nordeste 42 Norte 0 -- -- 66
2020-02-29 05:00:00 17.6 26 Norte 42 Norte 0 -- -- 67
2020-02-29 04:00:00 17.6 17 Nordeste 31 Norte 0 -- -- 68
2020-02-29 03:00:00 17.7 16 Nordeste 28 Nordeste 0 -- -- 68
2020-02-29 02:00:00 17.9 14 Nordeste 26 Nordeste 0 -- -- 68
2020-02-29 01:00:00 18 12 Nordeste 22 Nordeste 0 -- -- 69
2020-02-29 00:00:00 18.1 13 Nordeste 22 Norte 0 -- -- 69